KPHL/PHL METAR and TAF weather

Enter ICAO airport designator
Station Type Date Time Source
KPHL METAR 2018/12/19 08:54 UTC NOAA

KPHL 190854Z 00000KT 10SM FEW280 M03/M07 A3020 RMK AO2 SLP225 T10281072 50004


Station Type Date Time Source
KPHL Decoded METAR 2018/12/19 08:54 UTC NOAA

PHILADELPHIA INTERNATIONAL AIRPT, PA, United States (KPHL) 39-52N 075-14W 18M
Dec 19, 2018 - 03:54 AM EST / 2018.12.19 0854 UTC
Wind: Calm:0
Visibility: 10 mile(s):0
Sky conditions: mostly clear
Temperature: 27.0 F (-2.8 C)
Dew Point: 19.0 F (-7.2 C)
Relative Humidity: 71%
Pressure (altimeter): 30.2 in. Hg (1022 hPa)
Pressure tendency: 0.01 inches (0.4 hPa) higher than three hours ago
ob: KPHL 190854Z 00000KT 10SM FEW280 M03/M07 A3020 RMK AO2 SLP225 T10281072 50004
cycle: 9

Station Type Date Time Source
KPHL TAF 2018/12/19 09:56 UTC NOAA

TAF
AMD KPHL 190849Z 1909/2012 VRB03KT P6SM SKC
FM191600 23005KT P6SM FEW250


Example: see airport list